Time;durP1;ratioP1;P1;durP2;ratioP2;P2;SDS_P1;SDS_P2;PMS_P1;PMS_P2;Temp;Humidity;BMP_temperature;BMP_pressure;BME280_temperature;BME280_humidity;BME280_pressure;Samples;Min_cycle;Max_cycle;Signal;HPM_P1;HPM_P2
2021/07/05 00:01:53;;;;;;;4.83;4.00;;;15.30;99.90;;;;;;5016364;28;20483;-75
2021/07/05 00:04:20;;;;;;;6.53;4.30;;;15.30;99.90;;;;;;5034461;28;20517;-75
2021/07/05 00:06:47;;;;;;;5.10;4.23;;;15.30;99.90;;;;;;5029130;28;20427;-76
2021/07/05 00:09:15;;;;;;;4.60;4.10;;;15.20;99.90;;;;;;5014130;28;20454;-75
2021/07/05 00:11:42;;;;;;;5.30;4.30;;;15.20;99.90;;;;;;5021651;28;20489;-74
2021/07/05 00:14:09;;;;;;;4.87;4.47;;;15.20;99.90;;;;;;5023583;28;20473;-74
2021/07/05 00:16:37;;;;;;;7.40;4.20;;;15.20;99.90;;;;;;5029923;28;20430;-75
2021/07/05 00:19:04;;;;;;;5.50;4.30;;;15.20;99.90;;;;;;5030587;28;20818;-74
2021/07/05 00:21:31;;;;;;;6.40;4.40;;;15.20;99.90;;;;;;5018388;28;21098;-74
2021/07/05 00:23:58;;;;;;;9.10;4.20;;;15.20;99.90;;;;;;5031245;28;20794;-74
2021/07/05 00:26:26;;;;;;;6.10;4.20;;;15.20;99.90;;;;;;5032894;28;20449;-74
2021/07/05 00:28:53;;;;;;;4.50;4.10;;;15.20;99.90;;;;;;5026507;28;20474;-75
2021/07/05 00:31:20;;;;;;;7.00;4.50;;;15.20;99.90;;;;;;5018690;28;20847;-75
2021/07/05 00:33:47;;;;;;;5.07;4.57;;;15.20;99.90;;;;;;5015430;28;20470;-74
2021/07/05 00:36:14;;;;;;;5.10;4.23;;;15.10;99.90;;;;;;5021086;28;20454;-75
2021/07/05 00:38:41;;;;;;;6.60;4.77;;;15.10;99.90;;;;;;5031633;28;20438;-74
2021/07/05 00:41:08;;;;;;;5.00;3.70;;;15.10;99.90;;;;;;5030513;28;20503;-75
2021/07/05 00:43:36;;;;;;;4.90;3.97;;;15.10;99.90;;;;;;5032850;28;20939;-74
2021/07/05 00:46:04;;;;;;;4.40;3.97;;;15.10;99.90;;;;;;5033642;28;20533;-75
2021/07/05 00:48:31;;;;;;;4.80;4.33;;;15.10;99.90;;;;;;5018661;28;20464;-74
2021/07/05 00:50:58;;;;;;;6.70;4.10;;;15.10;99.90;;;;;;5017236;28;20481;-75
2021/07/05 00:53:26;;;;;;;10.00;4.00;;;15.10;99.90;;;;;;5028928;28;20446;-75
2021/07/05 00:55:53;;;;;;;5.03;4.50;;;15.10;99.90;;;;;;5029135;28;21025;-76
2021/07/05 00:58:20;;;;;;;4.33;3.93;;;15.50;99.90;;;;;;5030795;28;20438;-75
2021/07/05 01:00:48;;;;;;;4.77;4.30;;;15.10;99.90;;;;;;5028761;28;20949;-75
2021/07/05 01:03:15;;;;;;;5.27;3.53;;;15.10;99.90;;;;;;5023927;28;20438;-75
2021/07/05 01:05:42;;;;;;;4.13;3.73;;;15.10;99.90;;;;;;5015667;28;20463;-75
2021/07/05 01:08:09;;;;;;;6.50;4.20;;;15.10;99.90;;;;;;5016915;28;20463;-75
2021/07/05 01:10:36;;;;;;;5.10;4.47;;;15.10;99.90;;;;;;5029425;28;20490;-75
2021/07/05 01:13:04;;;;;;;5.97;4.23;;;15.10;99.90;;;;;;5028876;28;20438;-75
2021/07/05 01:15:33;;;;;;;6.20;3.97;;;15.10;99.90;;;;;;5024622;28;20458;-75
2021/07/05 01:18:04;;;;;;;6.07;4.03;;;15.10;99.90;;;;;;5018497;28;20916;-75
2021/07/05 01:20:33;;;;;;;5.57;4.20;;;15.10;99.90;;;;;;5016997;28;20482;-76
2021/07/05 01:23:01;;;;;;;5.47;4.23;;;15.10;99.90;;;;;;5020504;28;20818;-75
2021/07/05 01:25:30;;;;;;;7.47;4.20;;;15.10;99.90;;;;;;5023282;28;20458;-76
2021/07/05 01:27:59;;;;;;;5.87;3.80;;;15.10;99.90;;;;;;5029291;28;20776;-75
2021/07/05 01:30:27;;;;;;;6.90;4.17;;;15.10;99.90;;;;;;5028753;28;20641;-75
2021/07/05 01:32:57;;;;;;;5.97;3.73;;;15.10;99.90;;;;;;5021336;28;20440;-75
2021/07/05 01:35:24;;;;;;;7.53;4.47;;;15.10;99.90;;;;;;5015479;28;21096;-75
2021/07/05 01:37:51;;;;;;;4.43;3.70;;;15.10;99.90;;;;;;5014262;28;20447;-75
2021/07/05 01:40:19;;;;;;;5.83;3.70;;;15.10;99.90;;;;;;5019979;28;20484;-75
2021/07/05 01:42:50;;;;;;;5.23;3.63;;;15.10;99.90;;;;;;5029776;28;20609;-75
2021/07/05 01:45:18;;;;;;;16.53;4.30;;;15.10;99.90;;;;;;5026965;28;20860;-75
2021/07/05 01:47:44;;;;;;;6.97;4.10;;;15.10;99.90;;;;;;5013180;28;20465;-75
2021/07/05 01:50:12;;;;;;;7.63;3.80;;;15.10;99.90;;;;;;5012287;28;20467;-76
2021/07/05 01:52:40;;;;;;;4.73;4.13;;;15.10;99.90;;;;;;5012661;28;20485;-75
2021/07/05 01:55:08;;;;;;;6.70;3.97;;;15.10;99.90;;;;;;5020250;28;20464;-75
2021/07/05 01:57:36;;;;;;;7.07;3.83;;;15.10;99.90;;;;;;5021004;28;20465;-76
2021/07/05 02:00:10;;;;;;;6.03;3.40;;;15.20;99.90;;;;;;5029023;28;20434;-75
2021/07/05 02:02:37;;;;;;;5.43;4.00;;;15.20;99.90;;;;;;5012283;28;20490;-75
2021/07/05 02:05:07;;;;;;;4.40;3.60;;;15.20;99.90;;;;;;5013948;28;20852;-75
2021/07/05 02:07:34;;;;;;;3.87;3.50;;;15.20;99.90;;;;;;5004362;28;20718;-74
2021/07/05 02:10:01;;;;;;;4.13;3.73;;;15.30;99.90;;;;;;5029742;28;20434;-75
2021/07/05 02:12:28;;;;;;;7.73;3.50;;;15.30;99.90;;;;;;5028197;28;20485;-75
2021/07/05 02:14:56;;;;;;;6.17;3.63;;;15.30;99.90;;;;;;5031411;28;20466;-76
2021/07/05 02:17:23;;;;;;;32.03;4.30;;;15.30;99.90;;;;;;5032162;28;20437;-75
2021/07/05 02:19:50;;;;;;;4.10;3.40;;;15.30;99.90;;;;;;5028249;28;20461;-76
2021/07/05 02:22:17;;;;;;;9.10;3.60;;;15.30;99.90;;;;;;5013097;28;20465;-75
2021/07/05 02:24:44;;;;;;;6.13;3.30;;;15.30;99.90;;;;;;5016111;28;20529;-75
2021/07/05 02:27:11;;;;;;;6.87;3.57;;;15.30;99.90;;;;;;5017645;28;20473;-75
2021/07/05 02:29:38;;;;;;;4.47;3.67;;;15.40;99.90;;;;;;5015095;28;20785;-75
2021/07/05 02:32:07;;;;;;;9.60;3.57;;;15.40;99.90;;;;;;5026903;28;20490;-75
2021/07/05 02:34:34;;;;;;;6.03;3.20;;;15.40;99.90;;;;;;5029426;28;20445;-75
2021/07/05 02:37:01;;;;;;;4.67;3.43;;;15.40;99.90;;;;;;5028879;28;20541;-75
2021/07/05 02:39:28;;;;;;;4.90;2.90;;;15.50;99.90;;;;;;5031377;28;20525;-76
2021/07/05 02:41:55;;;;;;;3.60;3.10;;;15.40;99.90;;;;;;5027174;28;20510;-76
2021/07/05 02:44:22;;;;;;;6.83;2.93;;;15.50;99.90;;;;;;5013053;28;20450;-76
2021/07/05 02:46:49;;;;;;;6.10;3.23;;;15.50;99.90;;;;;;5015456;28;20440;-76
2021/07/05 02:49:17;;;;;;;6.53;2.90;;;15.50;99.90;;;;;;5024411;28;20450;-75
2021/07/05 02:51:44;;;;;;;4.33;3.23;;;15.50;99.90;;;;;;5029028;28;20516;-76
2021/07/05 02:54:11;;;;;;;5.20;2.93;;;15.60;99.90;;;;;;5019763;28;20450;-75
2021/07/05 02:56:38;;;;;;;2.77;2.57;;;15.60;99.90;;;;;;5019695;28;20461;-75
2021/07/05 02:59:05;;;;;;;9.00;3.10;;;15.60;99.90;;;;;;5029876;28;20814;-76
2021/07/05 03:01:32;;;;;;;3.23;2.73;;;15.60;99.90;;;;;;5011652;28;20467;-76
2021/07/05 03:03:58;;;;;;;7.70;2.90;;;15.60;99.90;;;;;;5018085;28;20429;-75
2021/07/05 03:06:27;;;;;;;3.70;2.77;;;15.60;99.90;;;;;;5028569;28;20730;-75
2021/07/05 03:08:53;;;;;;;5.80;3.20;;;15.70;99.90;;;;;;5026567;28;20571;-76
2021/07/05 03:11:21;;;;;;;4.07;3.23;;;15.70;99.90;;;;;;5013795;28;20500;-75
2021/07/05 03:13:47;;;;;;;2.83;2.40;;;15.70;99.90;;;;;;5011756;28;20518;-76
2021/07/05 03:16:16;;;;;;;3.77;3.27;;;15.70;99.90;;;;;;5014728;28;20435;-76
2021/07/05 03:18:43;;;;;;;6.50;3.20;;;15.70;99.90;;;;;;5013286;28;20426;-75
2021/07/05 03:21:10;;;;;;;6.73;3.53;;;15.70;99.90;;;;;;5009741;28;20482;-75
2021/07/05 03:23:38;;;;;;;8.00;3.50;;;15.70;99.90;;;;;;5012649;28;20561;-76
2021/07/05 03:26:05;;;;;;;3.77;3.10;;;15.70;99.90;;;;;;5008928;28;20431;-75
2021/07/05 03:28:32;;;;;;;4.63;3.30;;;15.70;99.90;;;;;;5012531;28;20830;-75
2021/07/05 03:30:59;;;;;;;5.97;3.87;;;15.80;99.90;;;;;;5013110;28;20856;-76
2021/07/05 03:33:25;;;;;;;5.60;3.73;;;15.70;99.90;;;;;;5013978;28;20431;-75
2021/07/05 03:35:52;;;;;;;5.30;3.50;;;15.80;99.90;;;;;;5008615;28;20431;-76
2021/07/05 03:38:20;;;;;;;6.53;3.07;;;15.80;99.90;;;;;;5020591;28;20452;-76
2021/07/05 03:40:49;;;;;;;6.13;3.67;;;15.80;99.90;;;;;;5028374;28;20520;-75
2021/07/05 03:43:17;;;;;;;9.10;3.80;;;15.80;99.90;;;;;;5024451;28;20448;-76
2021/07/05 03:45:44;;;;;;;6.20;3.73;;;15.80;99.90;;;;;;5015114;28;20468;-76
2021/07/05 03:48:11;;;;;;;5.83;3.10;;;15.80;99.90;;;;;;5017027;28;20898;-75
2021/07/05 03:50:39;;;;;;;8.67;4.07;;;15.80;99.90;;;;;;5020254;28;20961;-76
2021/07/05 03:53:06;;;;;;;4.17;3.10;;;15.80;99.90;;;;;;5023727;28;20945;-75
2021/07/05 03:55:35;;;;;;;6.63;3.33;;;15.80;99.90;;;;;;5022616;28;20851;-76
2021/07/05 03:58:04;;;;;;;4.67;2.73;;;15.90;99.90;;;;;;5001871;28;20498;-76
2021/07/05 04:00:34;;;;;;;5.50;2.60;;;15.90;99.90;;;;;;5013767;28;20824;-74
2021/07/05 04:03:01;;;;;;;5.60;3.20;;;15.90;99.90;;;;;;5021932;28;20441;-75
2021/07/05 04:05:28;;;;;;;6.00;3.30;;;15.90;99.90;;;;;;5021877;28;20432;-75
2021/07/05 04:07:56;;;;;;;6.57;2.93;;;15.90;99.90;;;;;;5021469;28;20439;-75
2021/07/05 04:10:23;;;;;;;4.33;2.90;;;16.00;99.90;;;;;;5028527;28;20520;-76
2021/07/05 04:12:51;;;;;;;6.20;2.50;;;15.90;99.90;;;;;;5025677;28;20849;-75
2021/07/05 04:15:20;;;;;;;3.20;1.83;;;15.90;99.90;;;;;;5025892;28;20814;-75
2021/07/05 04:17:47;;;;;;;3.90;1.93;;;15.90;99.90;;;;;;5011151;28;20468;-74
2021/07/05 04:20:19;;;;;;;3.83;1.90;;;15.90;99.90;;;;;;5018069;28;20470;-74
2021/07/05 04:22:46;;;;;;;3.13;1.50;;;15.80;99.90;;;;;;5013709;28;21181;-74
2021/07/05 04:25:14;;;;;;;2.60;1.60;;;15.70;99.90;;;;;;5019580;28;21008;-74
2021/07/05 04:27:41;;;;;;;2.33;1.60;;;15.70;99.90;;;;;;5023759;28;20458;-74
2021/07/05 04:30:09;;;;;;;2.23;1.70;;;15.60;99.90;;;;;;5032019;28;20461;-75
2021/07/05 04:32:38;;;;;;;1.53;1.17;;;15.60;99.90;;;;;;5025741;28;20481;-74
2021/07/05 04:35:08;;;;;;;1.97;1.40;;;15.50;99.90;;;;;;5030837;28;20552;-74
2021/07/05 04:37:37;;;;;;;2.10;1.60;;;15.50;99.90;;;;;;5032581;28;20941;-75
2021/07/05 04:40:05;;;;;;;1.53;1.43;;;15.40;99.90;;;;;;5022281;28;20459;-74
2021/07/05 04:42:32;;;;;;;4.00;1.33;;;15.40;99.90;;;;;;5015222;28;20442;-74
2021/07/05 04:44:59;;;;;;;2.07;1.60;;;15.40;99.90;;;;;;5016697;28;20447;-75
2021/07/05 04:47:25;;;;;;;1.93;1.40;;;15.30;99.90;;;;;;5024567;28;21080;-75
2021/07/05 04:49:54;;;;;;;2.20;1.53;;;15.30;99.90;;;;;;5031467;28;20434;-76
2021/07/05 04:52:21;;;;;;;2.10;1.63;;;15.30;99.90;;;;;;5023520;28;20576;-75
2021/07/05 04:54:47;;;;;;;2.30;1.73;;;15.30;99.90;;;;;;5011444;28;20453;-76
2021/07/05 04:57:15;;;;;;;2.30;1.80;;;15.30;99.90;;;;;;5030122;28;20453;-76
2021/07/05 04:59:42;;;;;;;1.80;1.40;;;15.20;99.90;;;;;;5020144;28;20451;-75
2021/07/05 05:02:09;;;;;;;2.03;1.47;;;15.20;99.90;;;;;;5015549;28;20965;-76
2021/07/05 05:04:36;;;;;;;4.07;1.50;;;15.20;99.90;;;;;;5012046;28;20944;-76
2021/07/05 05:07:04;;;;;;;2.50;1.60;;;15.20;99.90;;;;;;5013221;28;20450;-75
2021/07/05 05:09:31;;;;;;;1.97;1.50;;;15.20;99.90;;;;;;5030901;28;20830;-75
2021/07/05 05:11:58;;;;;;;1.50;1.40;;;15.20;99.90;;;;;;5030904;28;20504;-76
2021/07/05 05:14:25;;;;;;;3.37;1.60;;;15.30;99.90;;;;;;5019415;28;20474;-75
2021/07/05 05:16:52;;;;;;;1.80;1.57;;;15.30;99.90;;;;;;5014079;28;20811;-75
2021/07/05 05:19:19;;;;;;;3.00;1.67;;;15.30;99.90;;;;;;5028363;28;20449;-75
2021/07/05 05:21:46;;;;;;;1.70;1.60;;;15.30;99.90;;;;;;5030365;28;20450;-75
2021/07/05 05:24:14;;;;;;;3.30;2.07;;;15.30;99.90;;;;;;5028666;28;20450;-76
2021/07/05 05:26:41;;;;;;;4.40;1.80;;;15.30;99.90;;;;;;5025336;28;20461;-75
2021/07/05 05:29:08;;;;;;;2.40;1.77;;;15.40;99.90;;;;;;5016188;28;20459;-75
2021/07/05 05:31:35;;;;;;;2.67;1.83;;;15.40;99.90;;;;;;5019124;28;20489;-76
2021/07/05 05:34:03;;;;;;;2.97;1.73;;;15.40;99.90;;;;;;5020456;28;21123;-76
2021/07/05 05:36:30;;;;;;;3.13;1.70;;;15.50;99.90;;;;;;5013012;28;20447;-75
2021/07/05 05:38:57;;;;;;;2.10;1.83;;;15.50;99.90;;;;;;5019820;28;20455;-75
2021/07/05 05:41:25;;;;;;;2.60;1.67;;;15.50;99.90;;;;;;5030171;28;20481;-75
2021/07/05 05:43:52;;;;;;;2.53;2.00;;;15.60;99.90;;;;;;5021837;28;20446;-75
2021/07/05 05:46:19;;;;;;;2.40;2.20;;;15.60;99.90;;;;;;5013785;28;20491;-76
2021/07/05 05:48:49;;;;;;;3.33;2.13;;;15.60;99.90;;;;;;5029122;28;20430;-77
2021/07/05 05:51:16;;;;;;;3.47;2.17;;;15.60;99.90;;;;;;5027806;28;20905;-76
2021/07/05 05:53:44;;;;;;;5.33;2.17;;;15.60;99.90;;;;;;5023645;28;21277;-77
2021/07/05 05:56:11;;;;;;;2.27;1.70;;;15.60;99.90;;;;;;5030271;28;20540;-76
2021/07/05 05:58:41;;;;;;;3.00;2.17;;;15.70;99.90;;;;;;5014402;28;20555;-76
2021/07/05 06:01:08;;;;;;;2.60;2.03;;;15.70;99.90;;;;;;5012887;28;20471;-75
2021/07/05 06:03:35;;;;;;;2.70;1.93;;;15.70;99.90;;;;;;5011363;28;20446;-76
2021/07/05 06:06:02;;;;;;;2.97;2.17;;;15.70;99.90;;;;;;5028959;28;20449;-76
2021/07/05 06:08:29;;;;;;;2.20;2.03;;;15.70;99.90;;;;;;5028364;28;20441;-77
2021/07/05 06:10:56;;;;;;;2.70;2.00;;;15.70;99.90;;;;;;5021846;28;20474;-76
2021/07/05 06:13:23;;;;;;;2.27;2.07;;;15.80;99.90;;;;;;5017162;28;20828;-76
2021/07/05 06:15:51;;;;;;;3.03;2.00;;;15.80;99.90;;;;;;5014060;28;20461;-77
2021/07/05 06:18:18;;;;;;;2.47;2.07;;;15.80;99.90;;;;;;5016090;28;20451;-75
2021/07/05 06:20:45;;;;;;;2.33;1.90;;;15.90;99.90;;;;;;5015836;28;20443;-76
2021/07/05 06:23:20;;;;;;;1.97;1.80;;;15.90;99.90;;;;;;5029808;28;20445;-78
2021/07/05 06:25:48;;;;;;;2.10;1.90;;;16.00;99.90;;;;;;5016561;28;21002;-76
2021/07/05 06:28:16;;;;;;;2.90;2.20;;;16.00;99.90;;;;;;5016779;28;20542;-77
2021/07/05 06:30:43;;;;;;;2.90;2.03;;;16.10;99.90;;;;;;5021398;28;20490;-79
2021/07/05 06:33:12;;;;;;;2.80;2.30;;;16.20;99.90;;;;;;5015316;28;20456;-76
2021/07/05 06:35:39;;;;;;;2.40;2.20;;;16.30;99.90;;;;;;5016264;28;20434;-77
2021/07/05 06:38:06;;;;;;;2.87;2.40;;;16.40;99.90;;;;;;5021750;28;20430;-78
2021/07/05 06:40:33;;;;;;;3.80;2.50;;;16.60;99.90;;;;;;5018199;28;20467;-76
2021/07/05 06:43:00;;;;;;;2.63;2.40;;;16.70;99.90;;;;;;5016894;28;20431;-77
2021/07/05 06:45:27;;;;;;;2.43;2.23;;;16.90;99.90;;;;;;5012172;28;20434;-76
2021/07/05 06:47:54;;;;;;;3.97;2.50;;;17.10;99.90;;;;;;5017470;28;20464;-76
2021/07/05 06:50:23;;;;;;;3.33;2.10;;;17.30;99.90;;;;;;5005939;28;20477;-77
2021/07/05 06:52:50;;;;;;;3.73;2.57;;;17.50;99.90;;;;;;4996186;28;20580;-76
2021/07/05 06:55:17;;;;;;;3.23;1.90;;;17.80;99.90;;;;;;5015883;28;20441;-75
2021/07/05 06:57:44;;;;;;;7.43;1.90;;;18.00;99.90;;;;;;5012525;28;20438;-76
2021/07/05 07:00:13;;;;;;;2.30;1.80;;;18.20;99.90;;;;;;5018992;28;20455;-76
2021/07/05 07:02:41;;;;;;;2.43;1.90;;;18.30;99.90;;;;;;5017702;28;21198;-78
2021/07/05 07:05:11;;;;;;;3.53;1.83;;;18.60;99.90;;;;;;5023522;28;20442;-76
2021/07/05 07:07:39;;;;;;;3.40;1.90;;;18.80;99.90;;;;;;5021698;28;20465;-77
2021/07/05 07:10:07;;;;;;;3.10;1.90;;;19.00;99.90;;;;;;5013993;28;20505;-77
2021/07/05 07:12:35;;;;;;;3.43;2.33;;;19.20;99.90;;;;;;5013025;28;20481;-76
2021/07/05 07:15:04;;;;;;;2.70;1.90;;;19.20;99.90;;;;;;5013093;28;20465;-76
2021/07/05 07:17:34;;;;;;;4.27;2.17;;;19.40;99.90;;;;;;5018554;28;20464;-77
2021/07/05 07:20:01;;;;;;;4.20;2.80;;;19.30;99.90;;;;;;5025468;28;20469;-79
2021/07/05 07:22:29;;;;;;;3.70;2.80;;;19.30;99.90;;;;;;5019594;28;20472;-77
2021/07/05 07:24:57;;;;;;;4.90;3.40;;;19.30;99.90;;;;;;5014913;28;20957;-79
2021/07/05 07:27:24;;;;;;;3.93;3.53;;;19.40;99.90;;;;;;5008836;28;20461;-79
2021/07/05 07:29:51;;;;;;;6.10;3.93;;;19.40;99.90;;;;;;5014750;28;20465;-77
2021/07/05 07:32:18;;;;;;;4.77;3.43;;;19.40;99.90;;;;;;5012270;28;20484;-78
2021/07/05 07:34:45;;;;;;;3.20;2.87;;;19.30;99.90;;;;;;5006360;28;20461;-77
2021/07/05 07:37:12;;;;;;;5.40;3.83;;;19.30;99.90;;;;;;5010652;28;20446;-77
2021/07/05 07:39:41;;;;;;;5.43;3.37;;;19.10;99.90;;;;;;5014520;28;20459;-78
2021/07/05 07:42:10;;;;;;;5.03;3.03;;;19.10;99.90;;;;;;5013035;28;21016;-78
2021/07/05 07:44:37;;;;;;;7.60;3.40;;;19.30;99.90;;;;;;5023651;28;20449;-77
2021/07/05 07:47:05;;;;;;;6.73;2.60;;;19.60;99.90;;;;;;5021763;28;20458;-79
2021/07/05 07:49:33;;;;;;;4.63;2.47;;;19.60;99.90;;;;;;5004542;28;20469;-77
2021/07/05 07:52:02;;;;;;;3.83;2.23;;;19.80;99.90;;;;;;5018174;28;20485;-78
2021/07/05 07:54:29;;;;;;;4.83;2.63;;;19.90;99.90;;;;;;5015317;28;20430;-79
2021/07/05 07:56:56;;;;;;;5.47;2.90;;;19.80;99.90;;;;;;5013506;28;20465;-77
2021/07/05 07:59:24;;;;;;;3.30;2.10;;;20.00;99.90;;;;;;5023492;28;20458;-77
2021/07/05 08:01:51;;;;;;;3.70;2.20;;;20.10;99.90;;;;;;5026879;28;20465;-78
2021/07/05 08:04:18;;;;;;;4.93;2.40;;;20.10;99.90;;;;;;5026096;28;20468;-77
2021/07/05 08:06:46;;;;;;;4.00;2.03;;;20.10;99.90;;;;;;5031334;28;20500;-77
2021/07/05 08:09:13;;;;;;;5.27;2.30;;;19.80;99.90;;;;;;5018390;28;20454;-77
2021/07/05 08:11:40;;;;;;;2.73;2.07;;;19.80;99.90;;;;;;5024066;28;20555;-77
2021/07/05 08:14:08;;;;;;;6.37;2.67;;;19.80;99.90;;;;;;5030280;28;21060;-77
2021/07/05 08:16:37;;;;;;;4.00;2.57;;;19.50;99.90;;;;;;5028397;28;20461;-78
2021/07/05 08:19:04;;;;;;;2.73;2.40;;;19.40;99.90;;;;;;5031283;28;20860;-76
2021/07/05 08:21:36;;;;;;;2.93;2.43;;;19.30;99.90;;;;;;5015824;28;20471;-78
2021/07/05 08:24:03;;;;;;;3.47;2.47;;;19.10;99.90;;;;;;5020530;28;20492;-77
2021/07/05 08:26:30;;;;;;;3.30;2.10;;;18.90;99.90;;;;;;5027337;28;20969;-78
2021/07/05 08:28:57;;;;;;;3.67;2.30;;;18.80;99.90;;;;;;5019041;28;20458;-78
2021/07/05 08:31:25;;;;;;;4.97;2.43;;;18.80;99.90;;;;;;5027119;28;20496;-77
2021/07/05 08:33:53;;;;;;;3.30;2.53;;;18.70;99.90;;;;;;5017996;28;20492;-77
2021/07/05 08:36:21;;;;;;;6.43;3.00;;;18.70;99.90;;;;;;5033664;28;20496;-77
2021/07/05 08:38:48;;;;;;;4.33;2.33;;;18.60;99.90;;;;;;5033004;28;20452;-78
2021/07/05 08:41:16;;;;;;;3.20;2.43;;;18.50;99.90;;;;;;5023590;28;20470;-77
2021/07/05 08:43:45;;;;;;;2.83;2.30;;;18.50;99.90;;;;;;5024562;28;20442;-78
2021/07/05 08:46:15;;;;;;;2.70;2.17;;;18.50;99.90;;;;;;5016322;28;20457;-78
2021/07/05 08:48:46;;;;;;;2.30;1.70;;;18.50;99.90;;;;;;5028176;28;20445;-76
2021/07/05 08:51:18;;;;;;;6.30;2.00;;;18.50;99.90;;;;;;5014893;28;20478;-77
2021/07/05 08:53:46;;;;;;;3.00;2.30;;;18.40;99.90;;;;;;5028039;28;20899;-78
2021/07/05 08:56:13;;;;;;;3.70;1.87;;;18.50;99.90;;;;;;5029681;28;20939;-77
2021/07/05 08:58:41;;;;;;;2.10;1.90;;;18.40;99.90;;;;;;5023751;28;20465;-77
2021/07/05 09:01:10;;;;;;;4.13;2.40;;;18.40;99.90;;;;;;5005018;28;20488;-77
2021/07/05 09:03:38;;;;;;;2.27;1.97;;;18.40;99.90;;;;;;5030378;28;20534;-76
2021/07/05 09:06:10;;;;;;;2.77;1.83;;;18.40;99.90;;;;;;5001742;28;20688;-77
2021/07/05 09:08:40;;;;;;;3.30;1.77;;;18.40;99.90;;;;;;5018273;28;20803;-77
2021/07/05 09:11:08;;;;;;;3.10;2.03;;;18.40;99.90;;;;;;5015237;28;21177;-77
2021/07/05 09:13:47;;;;;;;1.70;1.60;;;18.50;99.90;;;;;;5026574;28;20486;-76
2021/07/05 09:16:27;;;;;;;2.03;1.83;;;18.40;99.90;;;;;;5013960;28;20439;-77
2021/07/05 09:18:54;;;;;;;3.23;2.23;;;18.40;99.90;;;;;;5021885;28;20469;-76
2021/07/05 09:21:23;;;;;;;1.90;1.80;;;18.40;99.90;;;;;;5015912;28;20972;-77
2021/07/05 09:23:56;;;;;;;1.90;1.47;;;18.30;99.90;;;;;;5022930;28;20460;-77
2021/07/05 09:26:27;;;;;;;2.07;1.87;;;18.40;99.90;;;;;;5010521;28;20947;-75
2021/07/05 09:28:55;;;;;;;2.60;1.73;;;18.50;99.90;;;;;;5023447;28;20551;-77
2021/07/05 09:31:39;;;;;;;2.13;1.73;;;18.50;99.90;;;;;;5000002;28;20485;-79
2021/07/05 09:34:16;;;;;;;2.13;1.93;;;18.60;99.90;;;;;;5013044;28;20576;-78
2021/07/05 09:36:43;;;;;;;2.77;1.60;;;18.70;99.90;;;;;;5017995;28;20988;-79
2021/07/05 09:39:14;;;;;;;2.17;1.63;;;18.60;99.90;;;;;;5030024;28;20461;-78
2021/07/05 09:41:42;;;;;;;2.20;2.00;;;18.70;99.90;;;;;;5015342;28;20986;-77
2021/07/05 09:44:12;;;;;;;3.67;2.07;;;18.70;99.90;;;;;;5019727;28;20496;-77
2021/07/05 09:46:42;;;;;;;2.10;1.90;;;18.80;99.90;;;;;;5017054;28;20454;-80
2021/07/05 09:49:13;;;;;;;2.17;1.47;;;18.90;99.90;;;;;;5015650;28;20459;-78
2021/07/05 09:51:42;;;;;;;1.67;1.50;;;18.90;99.90;;;;;;5011505;28;20463;-78
2021/07/05 09:54:09;;;;;;;2.33;1.77;;;18.90;99.90;;;;;;5027958;28;20548;-77
2021/07/05 09:56:38;;;;;;;3.53;1.80;;;18.80;99.90;;;;;;5020406;28;20468;-78
2021/07/05 09:59:21;;;;;;;2.20;1.70;;;18.90;99.90;;;;;;5029149;28;20478;-79
2021/07/05 10:01:49;;;;;;;2.00;1.70;;;18.70;99.90;;;;;;5016893;28;20573;-78
2021/07/05 10:04:23;;;;;;;4.03;2.23;;;18.70;99.90;;;;;;5012501;28;20451;-78
2021/07/05 10:06:51;;;;;;;1.77;1.57;;;18.80;99.90;;;;;;5006155;28;20438;-78
2021/07/05 10:09:21;;;;;;;1.93;1.60;;;18.80;99.90;;;;;;5004949;28;20475;-78
2021/07/05 10:11:50;;;;;;;2.30;1.57;;;18.90;99.90;;;;;;5020942;28;20570;-78
2021/07/05 10:14:22;;;;;;;2.70;1.53;;;19.00;99.90;;;;;;5022015;28;20854;-78
2021/07/05 10:16:53;;;;;;;3.37;1.73;;;19.10;99.90;;;;;;5014715;28;20461;-79
2021/07/05 10:19:19;;;;;;;4.37;2.07;;;19.10;99.90;;;;;;5025764;28;20457;-76
2021/07/05 10:21:48;;;;;;;1.90;1.70;;;19.10;99.90;;;;;;5023288;28;20570;-77
2021/07/05 10:24:15;;;;;;;3.00;2.07;;;19.20;99.90;;;;;;5016520;28;20439;-79
2021/07/05 10:26:44;;;;;;;2.97;1.97;;;19.10;99.90;;;;;;5012208;28;20821;-78
2021/07/05 10:29:12;;;;;;;2.17;1.73;;;19.20;99.90;;;;;;5019523;28;20454;-78
2021/07/05 10:31:41;;;;;;;4.03;1.90;;;19.20;99.90;;;;;;5024788;28;20461;-78
2021/07/05 10:34:09;;;;;;;3.63;1.80;;;19.20;99.90;;;;;;5017073;28;20857;-77
2021/07/05 10:36:40;;;;;;;1.90;1.70;;;19.10;99.90;;;;;;5014152;28;20463;-78
2021/07/05 10:39:09;;;;;;;6.23;2.00;;;19.30;99.90;;;;;;5012535;28;20466;-79
2021/07/05 10:41:39;;;;;;;3.83;2.70;;;19.40;99.90;;;;;;5010655;28;20990;-76
2021/07/05 10:44:09;;;;;;;3.10;2.10;;;19.40;99.90;;;;;;5027026;28;20450;-76
2021/07/05 10:46:41;;;;;;;3.17;2.00;;;19.30;99.90;;;;;;5028361;28;20449;-76
2021/07/05 10:49:09;;;;;;;2.30;1.80;;;19.40;99.90;;;;;;5021537;28;21049;-76
2021/07/05 10:51:45;;;;;;;4.90;2.43;;;19.50;99.90;;;;;;5029130;28;20482;-77
2021/07/05 10:54:12;;;;;;;4.67;3.43;;;19.50;99.90;;;;;;5021747;28;20587;-74
2021/07/05 10:56:44;;;;;;;2.00;1.50;;;19.50;99.90;;;;;;5030525;28;20449;-76
2021/07/05 10:59:34;;;;;;;4.33;1.60;;;19.70;99.90;;;;;;4996969;28;20477;-75
2021/07/05 11:02:02;;;;;;;6.40;1.93;;;19.70;99.90;;;;;;5015817;28;20486;-75
2021/07/05 11:04:31;;;;;;;2.93;1.70;;;19.80;99.90;;;;;;5017953;28;20442;-75
2021/07/05 11:06:59;;;;;;;3.03;2.00;;;19.90;99.90;;;;;;5021254;28;20458;-77
2021/07/05 11:09:27;;;;;;;3.10;1.43;;;19.90;99.90;;;;;;5029607;28;20442;-76
2021/07/05 11:11:57;;;;;;;2.20;1.77;;;20.00;99.90;;;;;;5030115;28;20465;-75
2021/07/05 11:14:27;;;;;;;1.73;1.30;;;20.00;99.90;;;;;;5009114;28;20840;-77
2021/07/05 11:16:59;;;;;;;2.03;1.57;;;20.10;99.90;;;;;;5015974;28;20435;-75
2021/07/05 11:19:38;;;;;;;3.37;1.97;;;20.00;99.90;;;;;;5011956;28;20877;-75
2021/07/05 11:22:09;;;;;;;2.60;1.50;;;20.00;99.90;;;;;;5011898;28;21037;-75
2021/07/05 11:24:43;;;;;;;2.53;1.40;;;20.00;99.90;;;;;;5020447;28;20836;-74
2021/07/05 11:27:27;;;;;;;3.57;1.93;;;20.00;99.90;;;;;;5018782;28;21540;-76
2021/07/05 11:29:56;;;;;;;2.63;1.60;;;19.90;99.90;;;;;;5023191;28;20442;-75
2021/07/05 11:32:38;;;;;;;2.53;1.30;;;19.90;99.90;;;;;;5014954;28;20445;-74
2021/07/05 11:35:28;;;;;;;2.07;1.50;;;20.00;99.90;;;;;;5011276;28;20485;-77
2021/07/05 11:37:56;;;;;;;1.40;1.30;;;20.00;99.90;;;;;;5027548;28;20453;-75
2021/07/05 11:40:43;;;;;;;2.23;1.40;;;20.10;99.90;;;;;;5022188;28;20482;-76
2021/07/05 11:43:11;;;;;;;1.73;1.50;;;20.10;99.90;;;;;;5025641;28;20473;-76
2021/07/05 11:45:41;;;;;;;2.27;1.40;;;20.10;99.90;;;;;;5005054;28;21687;-76
2021/07/05 11:48:08;;;;;;;2.00;1.40;;;20.00;99.90;;;;;;5014372;28;20653;-76
2021/07/05 11:50:40;;;;;;;3.20;1.60;;;19.90;99.90;;;;;;5012253;28;21206;-77
2021/07/05 11:53:07;;;;;;;4.40;1.67;;;19.80;99.90;;;;;;5021690;28;20549;-75
2021/07/05 11:55:35;;;;;;;2.80;1.50;;;19.70;99.90;;;;;;5032185;28;20485;-76
2021/07/05 11:58:05;;;;;;;3.73;2.10;;;19.70;99.90;;;;;;5022650;28;20462;-77
2021/07/05 12:00:34;;;;;;;2.27;1.47;;;19.60;99.90;;;;;;5017001;28;20486;-77
2021/07/05 12:03:03;;;;;;;1.60;1.50;;;19.50;99.90;;;;;;5014887;28;21198;-76
2021/07/05 12:05:30;;;;;;;1.60;1.40;;;19.50;99.90;;;;;;5031256;28;20935;-75
2021/07/05 12:08:04;;;;;;;2.50;1.50;;;19.50;99.90;;;;;;5025747;28;20443;-74
2021/07/05 12:10:32;;;;;;;2.27;1.30;;;19.50;99.90;;;;;;5016393;28;20492;-74
2021/07/05 12:13:15;;;;;;;2.50;1.43;;;19.40;99.90;;;;;;5015790;28;20979;-77
2021/07/05 12:15:54;;;;;;;2.23;1.20;;;19.50;99.90;;;;;;5022476;28;20970;-76
2021/07/05 12:18:20;;;;;;;1.87;1.40;;;19.40;99.90;;;;;;5025260;28;20556;-76
2021/07/05 12:20:56;;;;;;;3.23;1.50;;;19.40;99.90;;;;;;5026191;28;20477;-76
2021/07/05 12:23:34;;;;;;;1.30;1.10;;;19.50;99.90;;;;;;5032411;28;20445;-76
2021/07/05 12:26:12;;;;;;;2.40;1.60;;;19.50;99.90;;;;;;5018980;28;20477;-77
2021/07/05 12:29:02;;;;;;;2.23;1.70;;;19.50;99.90;;;;;;5014812;28;20462;-78
2021/07/05 12:31:29;;;;;;;1.50;1.40;;;19.50;99.90;;;;;;5028602;28;20913;-77
2021/07/05 12:33:56;;;;;;;1.30;1.20;;;19.50;99.90;;;;;;5030801;28;20486;-76
2021/07/05 12:36:23;;;;;;;1.83;1.27;;;19.40;99.90;;;;;;5026583;28;20454;-76
2021/07/05 12:39:00;;;;;;;2.33;1.60;;;19.40;99.90;;;;;;5026382;28;20462;-78
2021/07/05 12:41:29;;;;;;;2.43;1.47;;;19.40;99.90;;;;;;5025190;28;20980;-76
2021/07/05 12:44:09;;;;;;;1.77;1.17;;;19.40;99.90;;;;;;5022014;28;20439;-76
2021/07/05 12:46:36;;;;;;;1.87;1.30;;;19.40;99.90;;;;;;5012615;28;20435;-76
2021/07/05 12:49:03;;;;;;;1.63;1.30;;;19.30;99.90;;;;;;5019902;28;20468;-76
2021/07/05 12:51:31;;;;;;;1.57;1.30;;;19.30;99.90;;;;;;5018082;28;20467;-75
2021/07/05 12:53:57;;;;;;;1.77;1.40;;;19.30;99.90;;;;;;5026273;28;20484;-76